createdAt,value
2022-10-05T00:03:23.560Z,97319.50
2022-10-05T00:06:37.475Z,97326.02
2022-10-05T00:12:51.523Z,97328.89
2022-10-05T00:16:01.549Z,97325.61
2022-10-05T00:19:42.391Z,97333.97
2022-10-05T00:22:48.488Z,97333.69
2022-10-05T00:25:53.509Z,97335.48
2022-10-05T00:36:57.364Z,97332.23
2022-10-05T00:40:32.036Z,97334.50
2022-10-05T00:43:57.459Z,97337.35
2022-10-05T00:47:23.497Z,97335.98
2022-10-05T00:57:57.268Z,97352.97
2022-10-05T01:04:39.532Z,97362.20
2022-10-05T01:07:48.508Z,97359.56
2022-10-05T01:10:47.550Z,97361.21
2022-10-05T01:17:19.526Z,97370.25
2022-10-05T01:23:58.568Z,97375.90
2022-10-05T01:27:21.014Z,97374.58
2022-10-05T01:30:27.497Z,97376.45
2022-10-05T01:37:03.575Z,97380.67
2022-10-05T01:40:12.605Z,97379.17
2022-10-05T02:06:18.616Z,97373.74
2022-10-05T02:09:33.585Z,97376.27
2022-10-05T02:12:53.485Z,97380.34
2022-10-05T02:16:18.399Z,97377.55
2022-10-05T02:23:24.805Z,97368.80
2022-10-05T02:26:40.568Z,97372.59
2022-10-05T02:33:39.507Z,97365.86
2022-10-05T02:36:52.520Z,97370.66
2022-10-05T02:40:02.472Z,97374.56
2022-10-05T02:43:28.131Z,97384.69
2022-10-05T02:50:00.909Z,97386.19
2022-10-05T02:53:08.462Z,97396.45
2022-10-05T02:56:25.578Z,97390.35
2022-10-05T02:59:48.904Z,97391.96
2022-10-05T03:03:06.484Z,97395.66
2022-10-05T03:06:09.525Z,97396.39
2022-10-05T03:09:22.507Z,97396.84
2022-10-05T03:13:12.462Z,97400.42
2022-10-05T03:16:33.182Z,97407.83
2022-10-05T03:19:58.052Z,97405.66
2022-10-05T03:23:17.535Z,97413.17
2022-10-05T03:29:50.833Z,97428.67
2022-10-05T03:33:01.021Z,97428.60
2022-10-05T03:36:11.527Z,97429.11
2022-10-05T03:39:24.579Z,97426.11
2022-10-05T03:46:00.019Z,97428.77
2022-10-05T03:49:22.034Z,97428.75
2022-10-05T03:52:36.533Z,97427.95
2022-10-05T03:55:48.483Z,97428.11
2022-10-05T03:58:58.569Z,97432.00
2022-10-05T04:02:07.757Z,97435.77
2022-10-05T04:05:16.482Z,97439.18
2022-10-05T04:08:34.943Z,97438.73
2022-10-05T04:11:41.667Z,97439.72
2022-10-05T04:14:53.531Z,97439.88
2022-10-05T04:21:40.511Z,97445.11
2022-10-05T04:24:20.942Z,97450.41
2022-10-05T04:27:15.429Z,97448.10
2022-10-05T04:29:56.093Z,97463.55
2022-10-05T04:32:45.950Z,97463.74
2022-10-05T04:35:54.137Z,97468.43
2022-10-05T04:38:43.664Z,97474.36
2022-10-05T04:41:34.423Z,97478.20
2022-10-05T04:44:24.662Z,97484.27
2022-10-05T04:47:24.967Z,97481.45
2022-10-05T04:50:11.219Z,97487.27
2022-10-05T04:53:00.156Z,97483.90
2022-10-05T04:55:52.449Z,97487.30
2022-10-05T04:58:42.356Z,97487.65
2022-10-05T05:01:45.790Z,97485.46
2022-10-05T05:04:41.436Z,97487.34
2022-10-05T05:07:32.170Z,97488.58
2022-10-05T05:10:36.383Z,97487.18
2022-10-05T05:13:25.130Z,97490.45
2022-10-05T05:16:06.737Z,97486.63
2022-10-05T05:19:09.223Z,97490.70
2022-10-05T05:22:04.244Z,97497.17
2022-10-05T05:25:00.467Z,97502.95
2022-10-05T05:27:43.277Z,97499.06
2022-10-05T05:30:41.682Z,97500.52
2022-10-05T05:36:56.136Z,97511.16
2022-10-05T05:40:15.928Z,97510.79
2022-10-05T05:50:38.565Z,97519.08
2022-10-05T06:00:34.975Z,97506.13
2022-10-05T06:03:44.870Z,97503.66
2022-10-05T07:08:26.882Z,97564.48
2022-10-05T07:19:03.043Z,97566.92
2022-10-05T08:13:30.376Z,97585.68
2022-10-05T08:21:55.269Z,97585.58
2022-10-05T08:28:37.153Z,97577.21
2022-10-05T08:31:45.116Z,97588.31
2022-10-05T08:38:38.214Z,97615.04
2022-10-05T08:42:18.201Z,97626.29
2022-10-05T08:54:00.642Z,97630.95
2022-10-05T08:57:26.042Z,97641.86
2022-10-05T09:00:46.988Z,97645.52
2022-10-05T09:04:01.274Z,97648.11
2022-10-05T09:13:05.437Z,97651.49
2022-10-05T09:16:11.191Z,97657.55
2022-10-05T09:19:11.607Z,97665.60
2022-10-05T09:22:16.833Z,97664.92
2022-10-05T09:25:17.333Z,97663.95
2022-10-05T09:28:06.023Z,97665.45
2022-10-05T09:31:00.693Z,97663.52
2022-10-05T09:34:05.649Z,97659.27
2022-10-05T09:37:07.230Z,97655.95
2022-10-05T09:40:28.673Z,97663.10
2022-10-05T09:43:18.640Z,97656.48
2022-10-05T09:46:21.761Z,97660.19
2022-10-05T09:49:21.679Z,97656.96
2022-10-05T09:52:37.619Z,97651.19
2022-10-05T09:55:32.952Z,97636.31
2022-10-05T09:58:23.412Z,97632.04
2022-10-05T10:01:33.247Z,97635.39
2022-10-05T10:04:24.824Z,97628.92
2022-10-05T10:07:38.455Z,97621.23
2022-10-05T10:10:34.105Z,97618.67
2022-10-05T10:13:25.930Z,97611.36
2022-10-05T10:16:38.153Z,97607.15
2022-10-05T10:20:08.864Z,97608.15
2022-10-05T10:23:05.670Z,97602.12
2022-10-05T10:26:02.929Z,97610.09
2022-10-05T10:28:44.833Z,97613.94
2022-10-05T10:31:40.162Z,97612.19
2022-10-05T10:34:37.721Z,97606.75
2022-10-05T10:40:36.739Z,97612.83
2022-10-05T10:47:49.813Z,97616.39
2022-10-05T10:51:07.216Z,97621.73
2022-10-05T10:57:22.383Z,97610.38
2022-10-05T11:00:30.122Z,97608.23
2022-10-05T11:03:32.469Z,97600.90
2022-10-05T11:06:32.288Z,97591.60
2022-10-05T11:09:30.146Z,97589.70
2022-10-05T11:12:24.635Z,97587.14
2022-10-05T11:15:19.640Z,97587.09
2022-10-05T11:18:12.940Z,97582.59
2022-10-05T11:21:13.956Z,97580.27
2022-10-05T11:24:34.039Z,97579.62
2022-10-05T11:27:49.750Z,97571.73
2022-10-05T11:38:32.806Z,97569.98
2022-10-05T11:41:51.901Z,97569.70
2022-10-05T11:45:29.906Z,97569.25
2022-10-05T11:51:44.075Z,97566.89
2022-10-05T11:55:11.390Z,97567.51
2022-10-05T11:58:21.023Z,97575.92
2022-10-05T12:01:15.767Z,97575.67
2022-10-05T12:03:59.647Z,97575.83
2022-10-05T12:07:06.068Z,97578.60
2022-10-05T12:10:09.748Z,97580.48
2022-10-05T12:13:36.541Z,97581.11
2022-10-05T12:16:59.663Z,97575.92
2022-10-05T12:20:09.407Z,97577.61
2022-10-05T12:23:18.248Z,97573.34
2022-10-05T12:26:34.194Z,97565.40
2022-10-05T12:29:20.356Z,97564.55
2022-10-05T12:32:45.974Z,97563.15
2022-10-05T12:39:42.316Z,97566.08
2022-10-05T12:42:56.174Z,97562.64
2022-10-05T12:45:48.955Z,97568.23
2022-10-05T12:48:56.411Z,97564.48
2022-10-05T12:51:49.495Z,97563.98
2022-10-05T12:55:01.925Z,97560.51
2022-10-05T12:58:05.503Z,97560.66
2022-10-05T13:01:25.517Z,97566.25
2022-10-05T13:04:32.243Z,97566.80
2022-10-05T13:07:23.882Z,97566.53
2022-10-05T13:10:29.600Z,97561.64
2022-10-05T13:13:34.385Z,97561.63
2022-10-05T13:17:34.069Z,97561.63
2022-10-05T13:20:15.136Z,97558.38
2022-10-05T13:23:15.509Z,97555.08
2022-10-05T13:26:41.198Z,97551.94
2022-10-05T13:29:43.869Z,97553.39
2022-10-05T13:32:24.217Z,97554.29
2022-10-05T13:35:17.232Z,97551.52
2022-10-05T13:38:21.549Z,97548.95
2022-10-05T13:41:14.767Z,97547.51
2022-10-05T13:44:12.019Z,97543.52
2022-10-05T13:47:02.254Z,97542.65
2022-10-05T13:50:01.962Z,97538.89
2022-10-05T13:53:28.670Z,97539.89
2022-10-05T13:56:12.645Z,97536.80
2022-10-05T13:59:21.759Z,97535.22
2022-10-05T14:02:25.725Z,97533.52
2022-10-05T14:05:01.108Z,97537.80
2022-10-05T14:07:54.697Z,97537.52
2022-10-05T14:10:46.725Z,97532.83
2022-10-05T14:13:53.086Z,97532.46
2022-10-05T14:17:32.175Z,97531.46
2022-10-05T14:20:59.645Z,97535.15
2022-10-05T14:27:23.697Z,97522.26
2022-10-05T14:30:33.786Z,97516.45
2022-10-05T14:33:45.474Z,97511.92
2022-10-05T14:37:00.421Z,97509.16
2022-10-05T14:40:10.569Z,97507.95
2022-10-05T14:43:05.165Z,97506.38
2022-10-05T14:46:13.814Z,97507.79
2022-10-05T14:49:40.363Z,97508.36
2022-10-05T14:52:52.619Z,97512.23
2022-10-05T14:55:59.197Z,97515.52
2022-10-05T14:59:16.624Z,97513.77
2022-10-05T15:02:21.100Z,97513.11
2022-10-05T15:09:38.168Z,97518.05
2022-10-05T15:19:30.786Z,97524.92
2022-10-05T15:22:43.555Z,97523.44
2022-10-05T15:39:32.696Z,97527.83
2022-10-05T15:42:58.448Z,97529.79
2022-10-05T15:46:17.068Z,97532.92
2022-10-05T15:49:22.667Z,97533.87
2022-10-05T15:59:44.040Z,97542.05
2022-10-05T16:03:15.367Z,97543.42
2022-10-05T16:06:33.036Z,97542.41
2022-10-05T16:12:49.042Z,97551.89
2022-10-05T16:22:04.601Z,97553.61
2022-10-05T16:29:21.620Z,97565.36
2022-10-05T16:32:31.672Z,97566.13
2022-10-05T16:45:46.151Z,97576.02
2022-10-05T16:48:27.544Z,97584.63
2022-10-05T16:51:17.526Z,97584.66
2022-10-05T16:53:59.163Z,97585.40
2022-10-05T16:56:37.284Z,97587.30
2022-10-05T16:59:36.987Z,97585.91
2022-10-05T17:02:37.426Z,97590.39
2022-10-05T17:05:31.889Z,97588.36
2022-10-05T17:08:38.935Z,97592.38
2022-10-05T17:11:46.566Z,97600.72
2022-10-05T17:14:28.863Z,97603.28
2022-10-05T17:17:28.448Z,97601.65
2022-10-05T17:20:29.487Z,97605.11
2022-10-05T17:23:04.575Z,97603.16
2022-10-05T17:25:51.114Z,97602.15
2022-10-05T17:28:41.470Z,97601.34
2022-10-05T17:31:21.918Z,97605.48
2022-10-05T17:34:26.490Z,97608.08
2022-10-05T17:37:15.596Z,97612.61
2022-10-05T17:39:48.903Z,97615.34
2022-10-05T17:42:51.668Z,97616.00
2022-10-05T17:46:00.739Z,97618.16
2022-10-05T17:48:42.168Z,97615.38
2022-10-05T17:52:01.072Z,97615.16
2022-10-05T17:54:51.416Z,97620.23
2022-10-05T17:57:26.031Z,97623.55
2022-10-05T18:00:00.487Z,97625.44
2022-10-05T18:02:42.670Z,97626.77
2022-10-05T18:05:22.233Z,97631.42
2022-10-05T18:08:26.743Z,97624.55
2022-10-05T18:11:17.045Z,97617.41
2022-10-05T18:13:49.975Z,97616.51
2022-10-05T18:16:53.935Z,97616.27
2022-10-05T18:19:23.081Z,97617.50
2022-10-05T18:22:05.897Z,97612.71
2022-10-05T18:25:05.389Z,97613.38
2022-10-05T18:28:10.505Z,97606.88
2022-10-05T18:31:17.886Z,97598.69
2022-10-05T18:34:18.646Z,97595.84
2022-10-05T18:37:13.687Z,97596.64
2022-10-05T18:40:23.705Z,97600.02
2022-10-05T18:43:30.651Z,97603.39
2022-10-05T18:46:39.815Z,97604.17
2022-10-05T18:49:37.699Z,97603.59
2022-10-05T18:52:50.731Z,97611.71
2022-10-05T18:56:00.641Z,97610.84
2022-10-05T18:59:16.666Z,97614.41
2022-10-05T19:02:26.887Z,97612.66
2022-10-05T19:05:47.556Z,97613.77
2022-10-05T19:08:43.609Z,97616.05
2022-10-05T19:11:51.677Z,97618.42
2022-10-05T19:14:50.606Z,97621.41
2022-10-05T19:17:44.702Z,97630.99
2022-10-05T19:20:53.610Z,97626.48
2022-10-05T19:23:57.671Z,97631.02
2022-10-05T19:26:51.575Z,97631.90
2022-10-05T19:29:45.698Z,97633.50
2022-10-05T19:32:57.650Z,97636.84
2022-10-05T19:35:52.675Z,97634.06
2022-10-05T19:38:55.642Z,97633.36
2022-10-05T19:41:52.230Z,97632.79
2022-10-05T19:44:44.353Z,97634.88
2022-10-05T19:47:41.300Z,97630.17
2022-10-05T19:50:30.163Z,97631.21
2022-10-05T19:53:21.076Z,97625.66
2022-10-05T19:56:26.028Z,97624.85
2022-10-05T19:58:56.588Z,97616.06
2022-10-05T20:01:31.769Z,97611.66
2022-10-05T20:04:01.210Z,97611.33
2022-10-05T20:06:34.264Z,97608.66
2022-10-05T20:09:20.058Z,97605.67
2022-10-05T20:11:52.276Z,97605.74
2022-10-05T20:14:30.446Z,97604.02
2022-10-05T20:17:40.967Z,97612.26
2022-10-05T20:20:25.100Z,97617.30
2022-10-05T20:22:53.239Z,97615.52
2022-10-05T20:25:41.490Z,97619.52
2022-10-05T20:28:09.585Z,97614.37
2022-10-05T20:30:38.784Z,97615.70
2022-10-05T20:33:11.643Z,97614.27
2022-10-05T20:35:39.674Z,97616.27
2022-10-05T20:38:12.395Z,97619.27
2022-10-05T20:40:43.136Z,97618.30
2022-10-05T20:43:11.195Z,97620.30
2022-10-05T20:45:43.467Z,97624.02
2022-10-05T20:48:12.657Z,97625.65
2022-10-05T20:50:40.855Z,97621.48
2022-10-05T20:53:18.761Z,97622.80
2022-10-05T20:55:47.168Z,97621.66
2022-10-05T20:58:16.847Z,97618.23
2022-10-05T21:01:03.637Z,97620.16
2022-10-05T21:03:32.166Z,97622.03
2022-10-05T21:06:00.134Z,97616.46
2022-10-05T21:08:28.880Z,97623.09
2022-10-05T21:10:57.153Z,97620.17
2022-10-05T21:13:25.525Z,97618.79
2022-10-05T21:15:53.835Z,97613.14
2022-10-05T21:18:22.091Z,97613.81
2022-10-05T21:20:50.557Z,97612.58
2022-10-05T21:23:18.760Z,97613.18
2022-10-05T21:25:48.664Z,97608.77
2022-10-05T21:28:17.011Z,97609.88
2022-10-05T21:30:45.014Z,97607.66
2022-10-05T21:33:12.973Z,97601.02
2022-10-05T21:35:48.728Z,97595.75
2022-10-05T21:38:18.563Z,97595.17
2022-10-05T21:40:47.949Z,97595.98
2022-10-05T21:43:15.928Z,97593.34
2022-10-05T21:45:45.672Z,97589.25
2022-10-05T21:48:16.640Z,97589.94
2022-10-05T21:50:45.760Z,97590.28
2022-10-05T21:53:16.912Z,97585.04
2022-10-05T21:55:48.435Z,97584.08
2022-10-05T21:58:19.016Z,97587.07
2022-10-05T22:00:47.628Z,97584.41
2022-10-05T22:03:18.621Z,97584.63
2022-10-05T22:05:46.694Z,97583.91
2022-10-05T22:08:22.742Z,97582.95
2022-10-05T22:10:53.066Z,97583.51
2022-10-05T22:13:25.540Z,97583.41
2022-10-05T22:15:57.704Z,97584.29
2022-10-05T22:18:27.038Z,97587.52
2022-10-05T22:20:55.889Z,97587.95
2022-10-05T22:23:26.024Z,97587.30
2022-10-05T22:25:54.199Z,97586.33
2022-10-05T22:28:23.950Z,97586.06
2022-10-05T22:30:53.312Z,97586.95
2022-10-05T22:33:21.382Z,97586.19
2022-10-05T22:35:49.444Z,97584.42
2022-10-05T22:38:17.341Z,97584.88
2022-10-05T22:40:45.397Z,97583.09
2022-10-05T22:43:13.522Z,97577.38
2022-10-05T22:45:42.641Z,97577.52
2022-10-05T22:48:10.744Z,97574.21
2022-10-05T22:50:38.813Z,97574.98
2022-10-05T22:53:06.855Z,97571.67
2022-10-05T22:55:35.358Z,97570.84
2022-10-05T22:58:03.345Z,97564.83
2022-10-05T23:00:53.366Z,97560.65
2022-10-05T23:03:19.238Z,97564.70
2022-10-05T23:05:47.243Z,97563.02
2022-10-05T23:08:16.818Z,97562.44
2022-10-05T23:10:47.168Z,97563.81
2022-10-05T23:13:15.434Z,97568.21
2022-10-05T23:15:44.947Z,97564.00
2022-10-05T23:18:13.024Z,97564.20
2022-10-05T23:20:41.058Z,97562.73
2022-10-05T23:23:09.056Z,97562.48
2022-10-05T23:25:40.269Z,97559.62
2022-10-05T23:28:08.296Z,97556.63
2022-10-05T23:30:36.381Z,97556.06
2022-10-05T23:33:04.409Z,97555.68
2022-10-05T23:35:32.384Z,97552.73
2022-10-05T23:38:00.350Z,97557.34
2022-10-05T23:40:28.409Z,97559.12
2022-10-05T23:43:01.199Z,97564.39
2022-10-05T23:45:29.494Z,97560.38
2022-10-05T23:47:57.449Z,97560.96
2022-10-05T23:50:27.249Z,97565.71
2022-10-05T23:52:55.326Z,97566.73
2022-10-05T23:55:23.204Z,97563.74
2022-10-05T23:57:51.171Z,97568.50
